Hopedale, MA (01747)

3:04 PM EDT on August 01, 2015 (GMT -0400)
Dutcher Street | | Change Station
CLOSE
Current Station
Personal Weather Station
Location: Hopedale, MA
Elevation: 272 ft
Nearby Weather Stations

Elev 272 ft 42.14 °N, 71.55 °W | Updated 3 seconds ago

Clear
Clear
84.2 °F
Feels Like 85 °F
N
3.0
Wind Variable Wind from SW
Gusts 15.0 mph

Today
High -- | Low -- °F
--% Chance of Precip.
Yesterday
High -- | Low -- °F
Precip. -- in
5:39 AM 8:05 PM
Full, 97% visible
Pressure 29.75 in
Visibility 10.0 miles
Clouds Few 5500 ft
Heat Index 85 °F
Dew Point 63 °F
Humidity 49%
Rainfall in
Snow Depth Not available.
UV 8 out of 12
Pollen 5.20 out of 12
Air Quality Not available.
Flu Activity Not available.
METAR KSFZ 011855Z AUTO 27009G14KT 240V300 10SM FEW055 28/19 A2975 RMK AO1 LTG DSNT NW

More Conditions Fewer Conditions

Pressure 29.75 in
Visibility 10.0 miles
Clouds Few 5500 ft
Heat Index 85 °F
Dew Point 63 °F
Humidity 49%
Rainfall in
Snow Depth Not available.
UV 8 out of 12
Pollen 5.20 out of 12
Air Quality Not available.
Flu Activity Not available.
METAR KSFZ 011855Z AUTO 27009G14KT 240V300 10SM FEW055 28/19 A2975 RMK AO1 LTG DSNT NW

More Conditions Fewer Conditions

10-Day Weather Forecast

×

Almanac

Astronomy

Aug. 01, 2015 Rise Set
Actual Time
Civil Twilight
Nautical Twilight
Astronomical Twilight
Moon
Length of Visible Light
Length of Day
Tomorrow will be .
, % of the Moon is Illuminated

Today's Extremes

State Highs State Lows

Community

WunderPhotos

Upload Photos

1,843,037 photos uploaded!

WunderBlogs® & News

Nearby

Air Quality

  Air Quality AQ Index Pollutant
Not available.

Snow Depth

Station Depth Elevation

Earthquake Activity

City Distance Mag. Time & Date
Minimum magnitude displayed is 2.5.

Coastal Water Temperatures

Place Temperature

Stations

Nearby Weather Stations

Station Location Temp. Windchill Dew Point Humidity Wind Precip. Elev Updated Type